createdAt,value
2022-09-10T00:04:08.413Z,14.94
2022-09-10T00:09:12.561Z,14.89
2022-09-10T00:14:19.396Z,14.95
2022-09-10T00:19:22.874Z,14.90
2022-09-10T00:24:26.023Z,14.62
2022-09-10T00:29:30.170Z,14.89
2022-09-10T00:34:32.929Z,15.12
2022-09-10T00:39:35.857Z,15.15
2022-09-10T00:45:00.141Z,15.17
2022-09-10T00:50:08.278Z,15.30
2022-09-10T00:55:13.062Z,15.33
2022-09-10T01:00:18.399Z,15.25
2022-09-10T01:05:22.333Z,15.33
2022-09-10T01:10:29.098Z,15.34
2022-09-10T01:15:40.929Z,15.29
2022-09-10T01:21:05.146Z,15.29
2022-09-10T01:26:25.840Z,15.14
2022-09-10T01:31:37.347Z,15.05
2022-09-10T01:36:48.086Z,15.19
2022-09-10T01:41:54.412Z,15.22
2022-09-10T01:47:12.500Z,15.08
2022-09-10T01:52:28.576Z,14.97
2022-09-10T01:57:41.320Z,14.94
2022-09-10T02:02:51.001Z,14.97
2022-09-10T02:07:59.597Z,15.06
2022-09-10T02:13:02.889Z,14.85
2022-09-10T02:18:20.657Z,14.99
2022-09-10T02:23:31.618Z,14.96
2022-09-10T02:28:34.608Z,14.99
2022-09-10T02:33:39.447Z,14.85
2022-09-10T02:38:42.344Z,14.90
2022-09-10T02:43:46.221Z,14.91
2022-09-10T02:48:50.429Z,14.95
2022-09-10T02:53:53.580Z,14.91
2022-09-10T02:58:56.626Z,15.04
2022-09-10T03:04:04.004Z,15.01
2022-09-10T03:09:08.240Z,14.90
2022-09-10T03:14:12.165Z,15.07
2022-09-10T03:19:17.438Z,15.12
2022-09-10T03:24:20.362Z,15.12
2022-09-10T03:29:24.364Z,14.97
2022-09-10T03:34:29.429Z,15.02
2022-09-10T03:39:32.411Z,14.96
2022-09-10T03:44:35.358Z,14.82
2022-09-10T03:49:39.977Z,14.73
2022-09-10T03:54:45.550Z,14.73
2022-09-10T03:59:49.840Z,14.72
2022-09-10T04:04:54.200Z,14.73
2022-09-10T04:09:57.306Z,14.75
2022-09-10T04:15:01.562Z,14.63
2022-09-10T04:20:06.791Z,14.53
2022-09-10T04:25:10.733Z,14.38
2022-09-10T04:30:15.389Z,14.37
2022-09-10T04:35:20.368Z,14.15
2022-09-10T04:40:23.859Z,14.27
2022-09-10T04:45:26.829Z,14.25
2022-09-10T04:50:31.855Z,14.23
2022-09-10T04:55:51.409Z,14.27
2022-09-10T05:00:56.978Z,14.47
2022-09-10T05:06:01.895Z,14.57
2022-09-10T05:11:05.299Z,14.66
2022-09-10T05:16:09.120Z,14.82
2022-09-10T05:21:13.495Z,14.97
2022-09-10T05:26:17.861Z,15.12
2022-09-10T05:31:20.924Z,15.17
2022-09-10T05:36:25.548Z,15.27
2022-09-10T05:41:28.815Z,15.40
2022-09-10T05:46:33.466Z,15.51
2022-09-10T05:51:45.769Z,15.61
2022-09-10T05:56:48.686Z,15.69
2022-09-10T06:01:52.374Z,15.86
2022-09-10T06:06:58.495Z,15.98
2022-09-10T06:12:01.872Z,16.33
2022-09-10T06:17:06.241Z,16.50
2022-09-10T06:22:11.373Z,16.71
2022-09-10T06:27:17.146Z,16.92
2022-09-10T06:32:21.383Z,16.69
2022-09-10T06:37:26.993Z,16.73
2022-09-10T06:42:32.120Z,16.81
2022-09-10T06:53:30.122Z,17.09
2022-09-10T06:58:35.086Z,17.32
2022-09-10T07:03:38.875Z,16.84
2022-09-10T07:08:43.410Z,16.89
2022-09-10T07:13:51.889Z,17.42
2022-09-10T07:18:59.577Z,18.01
2022-09-10T07:24:21.507Z,18.34
2022-09-10T07:29:44.714Z,17.40
2022-09-10T07:34:52.278Z,17.39
2022-09-10T07:39:58.571Z,17.75
2022-09-10T07:45:01.904Z,17.74
2022-09-10T07:50:05.324Z,16.71
2022-09-10T07:55:10.711Z,16.61
2022-09-10T08:00:16.919Z,16.56
2022-09-10T08:05:26.990Z,16.24
2022-09-10T08:10:31.316Z,16.29
2022-09-10T08:15:36.205Z,16.10
2022-09-10T08:20:40.208Z,16.64
2022-09-10T08:25:52.493Z,16.86
2022-09-10T08:31:01.109Z,17.10
2022-09-10T08:36:06.809Z,16.83
2022-09-10T08:41:26.170Z,16.71
2022-09-10T08:46:33.428Z,16.71
2022-09-10T08:51:43.611Z,17.10
2022-09-10T08:56:50.859Z,17.82
2022-09-10T09:01:59.315Z,18.34
2022-09-10T09:07:11.374Z,18.85
2022-09-10T09:12:26.975Z,18.05
2022-09-10T09:17:44.164Z,18.94
2022-09-10T09:22:55.154Z,18.13
2022-09-10T09:28:18.469Z,17.90
2022-09-10T09:33:25.022Z,17.71
2022-09-10T09:38:34.029Z,17.55
2022-09-10T09:43:52.352Z,17.23
2022-09-10T09:49:00.158Z,16.99
2022-09-10T09:54:42.485Z,17.48
2022-09-10T09:59:34.816Z,17.95
2022-09-10T10:04:42.017Z,18.21
2022-09-10T10:09:49.785Z,18.89
2022-09-10T10:14:54.114Z,19.52
2022-09-10T10:20:10.601Z,19.32
2022-09-10T10:25:38.375Z,19.66
2022-09-10T10:30:43.032Z,20.32
2022-09-10T10:35:51.580Z,20.31
2022-09-10T10:41:08.223Z,19.38
2022-09-10T10:46:18.844Z,20.00
2022-09-10T10:51:33.361Z,20.02
2022-09-10T10:56:41.751Z,19.77
2022-09-10T11:01:51.902Z,20.58
2022-09-10T11:07:00.141Z,21.91
2022-09-10T11:12:06.939Z,21.86
2022-09-10T11:17:16.809Z,21.84
2022-09-10T11:22:23.907Z,21.29
2022-09-10T11:27:31.024Z,20.93
2022-09-10T11:32:39.897Z,20.88
2022-09-10T11:37:54.904Z,21.00
2022-09-10T11:43:02.236Z,22.71
2022-09-10T11:48:17.500Z,22.10
2022-09-10T11:53:23.393Z,21.00
2022-09-10T11:58:36.778Z,20.43
2022-09-10T12:04:12.454Z,21.05
2022-09-10T12:09:21.649Z,21.28
2022-09-10T12:14:24.683Z,20.93
2022-09-10T12:19:32.124Z,20.38
2022-09-10T12:24:37.237Z,20.41
2022-09-10T12:29:41.455Z,18.57
2022-09-10T12:34:48.403Z,17.23
2022-09-10T12:40:32.060Z,15.75
2022-09-10T12:46:02.545Z,15.88
2022-09-10T12:51:20.172Z,15.96
2022-09-10T12:56:58.215Z,16.07
2022-09-10T13:02:01.691Z,16.11
2022-09-10T13:07:19.803Z,16.22
2022-09-10T13:12:25.987Z,16.37
2022-09-10T13:18:01.890Z,16.51
2022-09-10T13:23:21.653Z,16.81
2022-09-10T13:29:05.046Z,17.15
2022-09-10T13:34:41.303Z,17.46
2022-09-10T13:40:03.753Z,17.79
2022-09-10T13:45:21.742Z,18.13
2022-09-10T13:50:28.152Z,18.67
2022-09-10T13:55:34.147Z,18.75
2022-09-10T14:00:42.489Z,19.11
2022-09-10T14:05:49.464Z,19.19
2022-09-10T14:10:58.101Z,18.87
2022-09-10T14:16:03.559Z,19.06
2022-09-10T14:21:07.612Z,19.07
2022-09-10T14:26:23.229Z,18.92
2022-09-10T14:31:33.419Z,18.80
2022-09-10T14:36:36.607Z,18.98
2022-09-10T14:41:41.250Z,19.07
2022-09-10T14:46:50.286Z,19.17
2022-09-10T14:51:53.659Z,19.39
2022-09-10T14:56:59.581Z,19.30
2022-09-10T15:02:07.866Z,19.13
2022-09-10T15:07:11.657Z,19.05
2022-09-10T15:12:20.350Z,19.04
2022-09-10T15:17:23.526Z,19.06
2022-09-10T15:22:28.579Z,19.02
2022-09-10T15:27:34.148Z,19.07
2022-09-10T15:32:37.270Z,19.02
2022-09-10T15:37:40.622Z,18.95
2022-09-10T15:42:45.055Z,18.99
2022-09-10T15:47:48.025Z,18.83
2022-09-10T15:52:50.929Z,18.69
2022-09-10T15:57:55.157Z,18.60
2022-09-10T16:02:58.005Z,18.50
2022-09-10T16:08:01.009Z,18.43
2022-09-10T16:13:05.220Z,18.38
2022-09-10T16:18:08.174Z,18.27
2022-09-10T16:23:11.103Z,18.18
2022-09-10T16:28:15.337Z,18.16
2022-09-10T16:33:18.175Z,18.06
2022-09-10T16:38:22.015Z,18.07
2022-09-10T16:43:26.283Z,17.98
2022-09-10T16:48:29.113Z,17.98
2022-09-10T16:53:31.961Z,18.00
2022-09-10T16:58:37.494Z,18.02
2022-09-10T17:03:41.704Z,18.00
2022-09-10T17:08:45.100Z,17.74
2022-09-10T17:13:51.053Z,17.64
2022-09-10T17:18:58.564Z,17.60
2022-09-10T17:24:03.023Z,17.27
2022-09-10T17:29:09.417Z,17.03
2022-09-10T17:34:13.535Z,16.96
2022-09-10T17:39:16.687Z,16.83
2022-09-10T17:44:21.060Z,16.76
2022-09-10T17:49:24.408Z,16.74
2022-09-10T17:54:27.323Z,16.71
2022-09-10T17:59:32.223Z,16.64
2022-09-10T18:04:35.116Z,16.69
2022-09-10T18:09:38.064Z,16.77
2022-09-10T18:14:42.866Z,16.77
2022-09-10T18:19:45.700Z,16.73
2022-09-10T18:24:48.522Z,16.71
2022-09-10T18:29:52.809Z,16.72
2022-09-10T18:34:57.379Z,16.75
2022-09-10T18:40:00.423Z,16.74
2022-09-10T18:45:05.549Z,16.71
2022-09-10T18:50:10.160Z,16.67
2022-09-10T18:55:13.123Z,16.59
2022-09-10T19:00:17.725Z,16.60
2022-09-10T19:05:20.567Z,16.59
2022-09-10T19:10:23.313Z,16.49
2022-09-10T19:15:27.886Z,16.30
2022-09-10T19:20:30.891Z,16.30
2022-09-10T19:25:33.730Z,16.31
2022-09-10T19:30:40.069Z,16.38
2022-09-10T19:35:44.215Z,16.38
2022-09-10T19:40:47.138Z,16.36
2022-09-10T19:45:55.632Z,16.33
2022-09-10T19:51:00.181Z,16.19
2022-09-10T19:56:07.149Z,16.22
2022-09-10T20:01:13.166Z,16.28
2022-09-10T20:06:18.456Z,16.30
2022-09-10T20:11:24.178Z,16.25
2022-09-10T20:16:29.904Z,16.09
2022-09-10T20:21:33.290Z,16.07
2022-09-10T20:26:39.076Z,16.12
2022-09-10T20:31:44.078Z,16.10
2022-09-10T20:36:47.781Z,16.13
2022-09-10T20:41:50.582Z,16.08
2022-09-10T20:46:55.007Z,16.08
2022-09-10T20:51:59.544Z,16.02
2022-09-10T20:57:02.455Z,16.00
2022-09-10T21:02:08.381Z,15.91
2022-09-10T21:07:11.401Z,15.87
2022-09-10T21:12:14.293Z,15.74
2022-09-10T21:17:18.640Z,15.83
2022-09-10T21:22:21.501Z,15.85
2022-09-10T21:27:24.918Z,15.87
2022-09-10T21:32:29.124Z,15.87
2022-09-10T21:37:32.033Z,15.84
2022-09-10T21:42:35.188Z,15.81
2022-09-10T21:47:39.363Z,15.75
2022-09-10T21:52:42.245Z,15.55
2022-09-10T21:57:45.159Z,15.10
2022-09-10T22:02:51.077Z,15.09
2022-09-10T22:07:54.554Z,15.13
2022-09-10T22:12:57.456Z,15.24
2022-09-10T22:18:01.653Z,15.08
2022-09-10T22:23:05.345Z,15.26
2022-09-10T22:28:08.141Z,15.31
2022-09-10T22:33:12.290Z,15.32
2022-09-10T22:38:19.482Z,15.10
2022-09-10T22:43:22.420Z,15.08
2022-09-10T22:48:27.616Z,15.08
2022-09-10T22:53:30.408Z,15.16
2022-09-10T22:58:33.889Z,15.11
2022-09-10T23:03:38.304Z,15.16
2022-09-10T23:08:41.946Z,15.20
2022-09-10T23:13:46.290Z,15.25
2022-09-10T23:18:52.158Z,15.31
2022-09-10T23:23:57.617Z,15.32
2022-09-10T23:29:03.764Z,14.83
2022-09-10T23:34:11.034Z,14.80
2022-09-10T23:39:16.119Z,14.82
2022-09-10T23:44:20.179Z,14.83
2022-09-10T23:49:24.958Z,14.78
2022-09-10T23:54:29.203Z,14.78
2022-09-10T23:59:32.010Z,14.63
